サンホセ/フアン・サンタ・マリア の空港の天気 - METARとTAF

フアン・サンタ・マリア国際空港 ( MROC / SJO ) - コスタリカ サンホセ
飛行場実況気象(Metar)
観測時間12/14 00:00 CST (12/14 06:00 UTC)
風向・風速東北東 3m/s
視程10km以上
天気現象
なし
気温21℃
湿度73%
気圧1018hPa
METARMROC 140600Z 06006KT CAVOK 21/16 A3005 NOSIG
過去の天気等 Google飛行場航空写真 Wunderground天気予報

過去48時間のMETAR

飛行場予報(TAF)
発表時間: 12/13 23:00 CST (12/14 05:00 UTC)
予報対象時間: 14日0時 CST ~ 15日0時 CST
風向・風速東 5m/s
視程10km以上
少しの雲 雲底高度 1220m
14日11時 CST ~ 14日13時 CST に徐々に
風向・風速西 3m/s
14日16時 CST ~ 14日19時 CST に一時的に
天気現象散在した霧
全天の4割程度の雲 雲底高度 610m
MROC 140500Z 1406/1506 10010KT 9999 FEW040 TX29/1418Z TN19/1410Z
BECMG 1417/1419 26005KT
TEMPO 1422/1501 BCFG SCT020